This is the latest recevied weather packets stored in our database for station/object CE3JSG-13. If no packets are shown the sender has not sent any weather packets the latest 10 day(s).
| Time | Temp. | Humidity | Pressure | Rain* | Wind** | Luminosity | Snow |
|---|---|---|---|---|---|---|---|
| 1777586655 | 20° C | 60% | 1012.1 hPa | - | - | - | - |
| 1777586235 | 20° C | 59% | 1012.4 hPa | - | - | - | - |
| 1777585816 | 20.56° C | 57% | 1011.7 hPa | - | - | - | - |
| 1777585395 | 20.56° C | 56% | 1011.5 hPa | - | - | - | - |
| 1777584976 | 21.11° C | 55% | 1011.5 hPa | - | - | - | - |
| 1777584556 | 21.11° C | 52% | 1011.8 hPa | - | - | - | - |
| 1777584136 | 21.67° C | 51% | 1011.5 hPa | - | - | - | - |
| 1777583715 | 22.22° C | 49% | 1011.1 hPa | - | - | - | - |
| 1777583295 | 22.22° C | 47% | 1010.6 hPa | - | - | - | - |
| 1777582875 | 22.78° C | 46% | 1010.2 hPa | - | - | - | - |
| 1777582456 | 22.78° C | 45% | 1011.2 hPa | - | - | - | - |
| 1777582035 | 23.33° C | 44% | 1010.4 hPa | - | - | - | - |
| 1777581615 | 23.89° C | 43% | 1008.9 hPa | - | - | - | - |
| 1777581195 | 23.33° C | 43% | 1011.3 hPa | - | - | - | - |
| 1777580775 | 24.44° C | 42% | 1009.2 hPa | - | - | - | - |
| 1777580355 | 23.89° C | 41% | 1010.5 hPa | - | - | - | - |
| 1777579935 | 24.44° C | 39% | 1009 hPa | - | - | - | - |
| 1777579515 | 24.44° C | 40% | 1010 hPa | - | - | - | - |
| 1777579096 | 25° C | 39% | 1009.5 hPa | - | - | - | - |
| 1777578675 | 25° C | 39% | 1010.1 hPa | - | - | - | - |
| 1777578256 | 25.56° C | 39% | 1009.1 hPa | - | - | - | - |
| 1777577835 | 25.56° C | 39% | 1010.2 hPa | - | - | - | - |
| 1777577415 | 26.11° C | 38% | 1009.5 hPa | - | - | - | - |
| 1777576995 | 26.11° C | 37% | 1008.4 hPa | - | - | - | - |
| 1777576575 | 26.11° C | 38% | 1009.8 hPa | - | - | - | - |
* Rain since midnight (hover to see other rain measurements)
** Current wind speed in m/s (hover to see current wind gust speed)